Terminal Aerodrome Forecast
Issued by NWS

Home | Current Version | Previous Version | Text Only | Print | Product List | Glossary On
Versions: 1 2 3 4 5 6 7 8 9 10 11 12 13 14 15 16 17 18 19 20 21 22 23 24 25
000
FTUS42 KTBW 262300 RRA
TAFPGD
TAF
KPGD 262343Z 2700/2724 30005KT P6SM SCT007 OVC025
     FM270300 36011KT P6SM SCT015 BKN030
     FM270900 02009KT P6SM SCT010 BKN020
     FM271500 04010KT P6SM VCSH SCT020 OVC035=

USA.gov is the U.S. government's official web portal to all federal, state and local government web resources and services.